sensor_id;sensor_type;location;lat;lon;timestamp;pressure;altitude;pressure_sealevel;temperature;humidity
76592;BME280;65481;47.600;19.682;2023-03-23T00:04:28;100160.69;;;5.81;75.08
76592;BME280;65481;47.600;19.682;2023-03-23T00:09:32;100155.69;;;5.99;74.33
76592;BME280;65481;47.600;19.682;2023-03-23T00:14:34;100152.53;;;6.17;73.11
76592;BME280;65481;47.600;19.682;2023-03-23T00:19:44;100155.94;;;6.04;73.39
76592;BME280;65481;47.600;19.682;2023-03-23T00:24:48;100164.31;;;5.86;73.70
76592;BME280;65481;47.600;19.682;2023-03-23T00:29:51;100161.63;;;5.59;75.57
76592;BME280;65481;47.600;19.682;2023-03-23T00:34:57;100163.00;;;5.49;76.31
76592;BME280;65481;47.600;19.682;2023-03-23T00:39:59;100156.16;;;5.48;76.36
76592;BME280;65481;47.600;19.682;2023-03-23T00:45:02;100157.94;;;5.40;77.26
76592;BME280;65481;47.600;19.682;2023-03-23T00:50:07;100154.25;;;5.28;78.96
76592;BME280;65481;47.600;19.682;2023-03-23T00:55:08;100151.03;;;5.26;79.68
76592;BME280;65481;47.600;19.682;2023-03-23T01:00:09;100141.91;;;5.15;80.51
76592;BME280;65481;47.600;19.682;2023-03-23T01:05:11;100139.66;;;5.05;81.34
76592;BME280;65481;47.600;19.682;2023-03-23T01:10:13;100147.47;;;4.98;81.53
76592;BME280;65481;47.600;19.682;2023-03-23T01:15:17;100141.63;;;4.96;81.75
76592;BME280;65481;47.600;19.682;2023-03-23T01:20:18;100130.09;;;4.84;82.66
76592;BME280;65481;47.600;19.682;2023-03-23T01:25:19;100133.28;;;4.79;83.03
76592;BME280;65481;47.600;19.682;2023-03-23T01:30:20;100137.88;;;4.70;83.85
76592;BME280;65481;47.600;19.682;2023-03-23T01:35:21;100136.88;;;4.72;84.29
76592;BME280;65481;47.600;19.682;2023-03-23T01:40:21;100132.59;;;4.64;84.80
76592;BME280;65481;47.600;19.682;2023-03-23T01:50:26;100126.88;;;4.53;86.50
76592;BME280;65481;47.600;19.682;2023-03-23T01:55:28;100126.13;;;4.60;86.53
76592;BME280;65481;47.600;19.682;2023-03-23T02:00:30;100125.50;;;4.58;87.14
76592;BME280;65481;47.600;19.682;2023-03-23T02:05:40;100126.63;;;4.48;88.01
76592;BME280;65481;47.600;19.682;2023-03-23T02:10:41;100129.41;;;4.40;88.36
76592;BME280;65481;47.600;19.682;2023-03-23T02:41:55;100150.00;;;4.28;89.61
76592;BME280;65481;47.600;19.682;2023-03-23T02:46:59;100145.41;;;4.30;89.51
76592;BME280;65481;47.600;19.682;2023-03-23T02:52:06;100148.88;;;4.37;87.88
76592;BME280;65481;47.600;19.682;2023-03-23T02:57:08;100150.28;;;4.40;86.98
76592;BME280;65481;47.600;19.682;2023-03-23T03:02:38;100154.31;;;4.43;85.82
76592;BME280;65481;47.600;19.682;2023-03-23T03:09:02;100158.25;;;4.32;86.72
76592;BME280;65481;47.600;19.682;2023-03-23T03:13:53;100160.75;;;4.18;87.54
76592;BME280;65481;47.600;19.682;2023-03-23T03:19:07;100158.81;;;4.05;87.42
76592;BME280;65481;47.600;19.682;2023-03-23T03:24:17;100165.88;;;4.27;85.45
76592;BME280;65481;47.600;19.682;2023-03-23T03:29:22;100162.75;;;4.16;84.84
76592;BME280;65481;47.600;19.682;2023-03-23T03:34:23;100160.25;;;3.86;85.64
76592;BME280;65481;47.600;19.682;2023-03-23T03:39:25;100159.91;;;3.74;86.19
76592;BME280;65481;47.600;19.682;2023-03-23T03:44:26;100166.19;;;3.80;85.38
76592;BME280;65481;47.600;19.682;2023-03-23T03:49:26;100167.31;;;3.71;85.33
76592;BME280;65481;47.600;19.682;2023-03-23T03:54:27;100161.94;;;3.57;85.25
76592;BME280;65481;47.600;19.682;2023-03-23T03:59:27;100173.75;;;3.53;85.71
76592;BME280;65481;47.600;19.682;2023-03-23T04:04:28;100172.63;;;3.62;85.16
76592;BME280;65481;47.600;19.682;2023-03-23T04:09:28;100175.44;;;3.61;85.04
76592;BME280;65481;47.600;19.682;2023-03-23T04:14:31;100177.13;;;3.69;85.04
76592;BME280;65481;47.600;19.682;2023-03-23T04:19:32;100177.94;;;3.69;84.82
76592;BME280;65481;47.600;19.682;2023-03-23T04:24:33;100181.00;;;3.58;85.24
76592;BME280;65481;47.600;19.682;2023-03-23T04:29:35;100173.03;;;3.44;84.49
76592;BME280;65481;47.600;19.682;2023-03-23T04:34:36;100184.72;;;3.33;83.20
76592;BME280;65481;47.600;19.682;2023-03-23T04:39:36;100189.31;;;3.31;83.74
76592;BME280;65481;47.600;19.682;2023-03-23T04:44:40;100182.38;;;3.39;84.19
76592;BME280;65481;47.600;19.682;2023-03-23T04:49:40;100182.47;;;3.45;84.77
76592;BME280;65481;47.600;19.682;2023-03-23T04:54:41;100185.41;;;3.57;84.67
76592;BME280;65481;47.600;19.682;2023-03-23T04:59:43;100182.16;;;3.70;83.88
76592;BME280;65481;47.600;19.682;2023-03-23T05:04:43;100178.91;;;3.68;84.87
76592;BME280;65481;47.600;19.682;2023-03-23T05:09:47;100180.47;;;3.62;84.25
76592;BME280;65481;47.600;19.682;2023-03-23T05:14:48;100177.06;;;3.62;83.78
76592;BME280;65481;47.600;19.682;2023-03-23T05:19:49;100183.44;;;3.59;83.91
76592;BME280;65481;47.600;19.682;2023-03-23T05:24:50;100181.72;;;3.52;83.54
76592;BME280;65481;47.600;19.682;2023-03-23T05:29:51;100185.69;;;3.47;83.68
76592;BME280;65481;47.600;19.682;2023-03-23T05:34:52;100184.31;;;3.67;83.00
76592;BME280;65481;47.600;19.682;2023-03-23T05:39:53;100187.19;;;3.72;82.90
76592;BME280;65481;47.600;19.682;2023-03-23T05:44:55;100179.25;;;3.80;83.71
76592;BME280;65481;47.600;19.682;2023-03-23T05:49:56;100181.53;;;4.05;83.67
76592;BME280;65481;47.600;19.682;2023-03-23T05:54:57;100182.28;;;4.42;83.74
76592;BME280;65481;47.600;19.682;2023-03-23T05:59:58;100183.72;;;4.73;83.65
76592;BME280;65481;47.600;19.682;2023-03-23T06:04:58;100189.38;;;5.12;83.16
76592;BME280;65481;47.600;19.682;2023-03-23T06:09:59;100181.53;;;5.47;82.49
76592;BME280;65481;47.600;19.682;2023-03-23T06:15:00;100176.03;;;5.90;81.88
76592;BME280;65481;47.600;19.682;2023-03-23T06:20:01;100166.84;;;6.55;80.22
76592;BME280;65481;47.600;19.682;2023-03-23T06:25:05;100182.22;;;7.37;77.54
76592;BME280;65481;47.600;19.682;2023-03-23T06:30:07;100179.78;;;8.20;75.41
76592;BME280;65481;47.600;19.682;2023-03-23T06:35:09;100185.28;;;8.94;72.78
76592;BME280;65481;47.600;19.682;2023-03-23T06:40:10;100194.59;;;9.83;69.96
76592;BME280;65481;47.600;19.682;2023-03-23T06:45:10;100204.66;;;10.95;66.21
76592;BME280;65481;47.600;19.682;2023-03-23T06:50:11;100199.59;;;11.87;62.86
76592;BME280;65481;47.600;19.682;2023-03-23T06:55:12;100198.41;;;12.58;59.87
76592;BME280;65481;47.600;19.682;2023-03-23T07:00:13;100195.63;;;13.26;57.44
76592;BME280;65481;47.600;19.682;2023-03-23T07:05:14;100205.44;;;13.98;55.09
76592;BME280;65481;47.600;19.682;2023-03-23T07:10:15;100205.34;;;14.85;53.45
76592;BME280;65481;47.600;19.682;2023-03-23T07:15:15;100203.78;;;15.42;51.09
76592;BME280;65481;47.600;19.682;2023-03-23T07:20:16;100203.41;;;16.39;49.74
76592;BME280;65481;47.600;19.682;2023-03-23T07:25:17;100200.16;;;16.78;47.77
76592;BME280;65481;47.600;19.682;2023-03-23T07:30:18;100209.19;;;17.63;45.47
76592;BME280;65481;47.600;19.682;2023-03-23T07:35:19;100211.75;;;18.24;43.56
76592;BME280;65481;47.600;19.682;2023-03-23T07:40:19;100219.25;;;18.81;42.11
76592;BME280;65481;47.600;19.682;2023-03-23T07:45:22;100224.06;;;19.32;41.06
76592;BME280;65481;47.600;19.682;2023-03-23T07:50:23;100223.41;;;18.92;40.39
76592;BME280;65481;47.600;19.682;2023-03-23T07:55:25;100227.47;;;17.85;42.15
76592;BME280;65481;47.600;19.682;2023-03-23T08:00:27;100219.03;;;17.73;42.33
76592;BME280;65481;47.600;19.682;2023-03-23T08:05:28;100223.75;;;17.81;43.12
76592;BME280;65481;47.600;19.682;2023-03-23T08:10:29;100219.47;;;17.35;43.09
76592;BME280;65481;47.600;19.682;2023-03-23T08:15:30;100215.53;;;17.22;43.14
76592;BME280;65481;47.600;19.682;2023-03-23T08:20:31;100212.56;;;17.34;43.43
76592;BME280;65481;47.600;19.682;2023-03-23T08:25:32;100206.09;;;18.30;41.94
76592;BME280;65481;47.600;19.682;2023-03-23T08:30:32;100210.69;;;19.32;40.40
76592;BME280;65481;47.600;19.682;2023-03-23T08:35:34;100215.13;;;20.00;39.17
76592;BME280;65481;47.600;19.682;2023-03-23T08:40:34;100218.63;;;20.33;38.60
76592;BME280;65481;47.600;19.682;2023-03-23T08:45:35;100224.78;;;20.67;37.34
76592;BME280;65481;47.600;19.682;2023-03-23T08:50:37;100223.81;;;20.77;37.40
76592;BME280;65481;47.600;19.682;2023-03-23T08:55:37;100216.44;;;21.89;36.10
76592;BME280;65481;47.600;19.682;2023-03-23T09:00:38;100219.41;;;22.33;35.36
76592;BME280;65481;47.600;19.682;2023-03-23T09:05:40;100217.59;;;22.74;34.40
76592;BME280;65481;47.600;19.682;2023-03-23T09:10:46;100209.06;;;23.21;34.01
76592;BME280;65481;47.600;19.682;2023-03-23T09:15:48;100206.25;;;23.61;33.76
76592;BME280;65481;47.600;19.682;2023-03-23T09:20:50;100207.38;;;23.86;32.83
76592;BME280;65481;47.600;19.682;2023-03-23T09:25:51;100211.28;;;24.33;32.10
76592;BME280;65481;47.600;19.682;2023-03-23T09:30:54;100201.59;;;24.88;31.03
76592;BME280;65481;47.600;19.682;2023-03-23T09:35:57;100190.09;;;25.51;30.88
76592;BME280;65481;47.600;19.682;2023-03-23T09:41:08;100179.47;;;25.67;30.30
76592;BME280;65481;47.600;19.682;2023-03-23T09:51:56;100172.66;;;24.11;31.86
76592;BME280;65481;47.600;19.682;2023-03-23T09:56:59;100160.31;;;24.01;31.74
76592;BME280;65481;47.600;19.682;2023-03-23T10:02:18;100165.22;;;23.90;31.74
76592;BME280;65481;47.600;19.682;2023-03-23T10:07:23;100159.06;;;23.99;31.53
76592;BME280;65481;47.600;19.682;2023-03-23T10:12:47;100139.38;;;23.89;30.77
76592;BME280;65481;47.600;19.682;2023-03-23T10:18:00;100141.31;;;24.45;30.64
76592;BME280;65481;47.600;19.682;2023-03-23T10:23:14;100139.28;;;25.23;29.08
76592;BME280;65481;47.600;19.682;2023-03-23T10:28:21;100131.41;;;25.18;28.39
76592;BME280;65481;47.600;19.682;2023-03-23T10:33:35;100126.00;;;24.28;28.17
76592;BME280;65481;47.600;19.682;2023-03-23T10:38:41;100121.78;;;23.83;29.78
76592;BME280;65481;47.600;19.682;2023-03-23T10:43:44;100104.19;;;23.95;29.03
76592;BME280;65481;47.600;19.682;2023-03-23T10:48:45;100113.09;;;23.69;30.28
76592;BME280;65481;47.600;19.682;2023-03-23T10:53:56;100102.78;;;23.01;30.00
76592;BME280;65481;47.600;19.682;2023-03-23T10:58:57;100097.25;;;23.76;30.14
76592;BME280;65481;47.600;19.682;2023-03-23T11:03:59;100094.44;;;23.37;30.07
76592;BME280;65481;47.600;19.682;2023-03-23T11:09:08;100096.16;;;22.89;30.29
76592;BME280;65481;47.600;19.682;2023-03-23T11:14:26;100099.91;;;22.71;31.77
76592;BME280;65481;47.600;19.682;2023-03-23T11:19:33;100093.34;;;22.45;31.48
76592;BME280;65481;47.600;19.682;2023-03-23T11:24:41;100105.69;;;22.15;31.54
76592;BME280;65481;47.600;19.682;2023-03-23T11:29:50;100094.69;;;22.02;31.59
76592;BME280;65481;47.600;19.682;2023-03-23T11:35:00;100098.34;;;22.06;32.47
76592;BME280;65481;47.600;19.682;2023-03-23T11:40:23;100095.38;;;22.08;32.07
76592;BME280;65481;47.600;19.682;2023-03-23T11:50:45;100067.72;;;22.07;32.10
76592;BME280;65481;47.600;19.682;2023-03-23T11:56:01;100055.50;;;22.01;32.89
76592;BME280;65481;47.600;19.682;2023-03-23T12:01:12;100064.19;;;21.98;32.77
76592;BME280;65481;47.600;19.682;2023-03-23T12:17:16;100062.09;;;22.27;33.11
76592;BME280;65481;47.600;19.682;2023-03-23T12:22:40;100049.28;;;22.64;32.39
76592;BME280;65481;47.600;19.682;2023-03-23T12:28:06;100046.13;;;22.79;31.60
76592;BME280;65481;47.600;19.682;2023-03-23T12:48:41;100017.91;;;24.42;29.55
76592;BME280;65481;47.600;19.682;2023-03-23T12:53:49;100008.41;;;24.45;29.51
76592;BME280;65481;47.600;19.682;2023-03-23T12:59:01;99993.63;;;24.21;29.41
76592;BME280;65481;47.600;19.682;2023-03-23T13:04:11;99996.63;;;23.81;30.20
76592;BME280;65481;47.600;19.682;2023-03-23T13:09:36;99995.94;;;23.93;30.33
76592;BME280;65481;47.600;19.682;2023-03-23T13:15:00;99995.16;;;24.31;28.66
76592;BME280;65481;47.600;19.682;2023-03-23T13:25:55;99987.38;;;24.29;29.26
76592;BME280;65481;47.600;19.682;2023-03-23T13:31:14;99980.91;;;24.22;30.37
76592;BME280;65481;47.600;19.682;2023-03-23T13:36:25;99974.47;;;24.44;29.61
76592;BME280;65481;47.600;19.682;2023-03-23T13:41:26;99974.59;;;24.47;29.50
76592;BME280;65481;47.600;19.682;2023-03-23T13:46:29;99978.63;;;24.62;29.68
76592;BME280;65481;47.600;19.682;2023-03-23T14:02:31;99975.44;;;23.70;30.16
76592;BME280;65481;47.600;19.682;2023-03-23T14:07:59;99969.19;;;23.40;30.45
76592;BME280;65481;47.600;19.682;2023-03-23T14:13:03;99965.56;;;23.18;31.35
76592;BME280;65481;47.600;19.682;2023-03-23T14:18:04;99955.00;;;22.87;32.11
76592;BME280;65481;47.600;19.682;2023-03-23T14:23:05;99964.78;;;22.74;32.59
76592;BME280;65481;47.600;19.682;2023-03-23T14:28:17;99954.78;;;22.39;31.87
76592;BME280;65481;47.600;19.682;2023-03-23T14:33:18;99951.19;;;22.52;31.97
76592;BME280;65481;47.600;19.682;2023-03-23T14:38:21;99952.78;;;22.97;31.89
76592;BME280;65481;47.600;19.682;2023-03-23T14:43:29;99943.25;;;23.18;31.39
76592;BME280;65481;47.600;19.682;2023-03-23T14:48:31;99948.97;;;23.25;31.15
76592;BME280;65481;47.600;19.682;2023-03-23T14:53:35;99940.88;;;23.16;31.66
76592;BME280;65481;47.600;19.682;2023-03-23T14:58:36;99937.91;;;23.00;31.42
76592;BME280;65481;47.600;19.682;2023-03-23T15:03:40;99939.97;;;22.59;32.11
76592;BME280;65481;47.600;19.682;2023-03-23T15:08:43;99947.78;;;22.12;32.13
76592;BME280;65481;47.600;19.682;2023-03-23T15:13:51;99941.16;;;21.69;33.05
76592;BME280;65481;47.600;19.682;2023-03-23T15:18:57;99934.56;;;21.43;33.11
76592;BME280;65481;47.600;19.682;2023-03-23T15:23:58;99936.78;;;21.18;33.64
76592;BME280;65481;47.600;19.682;2023-03-23T15:29:21;99935.06;;;21.00;33.98
76592;BME280;65481;47.600;19.682;2023-03-23T15:34:29;99930.56;;;20.86;34.10
76592;BME280;65481;47.600;19.682;2023-03-23T15:39:31;99931.72;;;20.57;34.78
76592;BME280;65481;47.600;19.682;2023-03-23T15:44:33;99937.91;;;20.44;35.52
76592;BME280;65481;47.600;19.682;2023-03-23T15:49:34;99937.66;;;20.54;35.78
76592;BME280;65481;47.600;19.682;2023-03-23T15:54:35;99936.47;;;20.61;35.78
76592;BME280;65481;47.600;19.682;2023-03-23T15:59:35;99944.16;;;20.53;35.71
76592;BME280;65481;47.600;19.682;2023-03-23T16:04:36;99948.84;;;20.34;35.78
76592;BME280;65481;47.600;19.682;2023-03-23T16:09:36;99947.69;;;20.12;36.16
76592;BME280;65481;47.600;19.682;2023-03-23T16:14:38;99949.56;;;19.97;36.18
76592;BME280;65481;47.600;19.682;2023-03-23T16:19:38;99959.53;;;19.78;36.93
76592;BME280;65481;47.600;19.682;2023-03-23T16:24:39;99958.78;;;19.44;37.81
76592;BME280;65481;47.600;19.682;2023-03-23T16:29:39;99968.91;;;19.14;38.26
76592;BME280;65481;47.600;19.682;2023-03-23T16:34:40;99965.16;;;18.96;38.57
76592;BME280;65481;47.600;19.682;2023-03-23T16:39:40;99971.91;;;18.88;38.56
76592;BME280;65481;47.600;19.682;2023-03-23T16:44:41;99977.13;;;18.80;38.44
76592;BME280;65481;47.600;19.682;2023-03-23T16:49:41;99985.34;;;18.64;38.28
76592;BME280;65481;47.600;19.682;2023-03-23T16:54:42;99983.63;;;18.54;38.09
76592;BME280;65481;47.600;19.682;2023-03-23T16:59:43;99987.50;;;18.43;38.11
76592;BME280;65481;47.600;19.682;2023-03-23T17:04:45;99986.94;;;18.22;38.38
76592;BME280;65481;47.600;19.682;2023-03-23T17:09:45;99988.53;;;17.93;38.69
76592;BME280;65481;47.600;19.682;2023-03-23T17:14:47;99990.00;;;17.80;39.13
76592;BME280;65481;47.600;19.682;2023-03-23T17:19:47;99981.88;;;17.66;39.24
76592;BME280;65481;47.600;19.682;2023-03-23T17:24:48;99976.41;;;17.52;39.70
76592;BME280;65481;47.600;19.682;2023-03-23T17:29:49;99984.97;;;17.44;40.11
76592;BME280;65481;47.600;19.682;2023-03-23T17:34:50;99984.78;;;17.35;40.48
76592;BME280;65481;47.600;19.682;2023-03-23T17:39:51;99991.31;;;17.19;41.23
76592;BME280;65481;47.600;19.682;2023-03-23T17:44:52;100006.94;;;16.96;41.70
76592;BME280;65481;47.600;19.682;2023-03-23T17:49:53;100010.69;;;16.85;42.29
76592;BME280;65481;47.600;19.682;2023-03-23T17:54:57;100019.06;;;16.62;42.64
76592;BME280;65481;47.600;19.682;2023-03-23T17:59:58;100012.75;;;16.43;43.28
76592;BME280;65481;47.600;19.682;2023-03-23T18:04:58;100019.44;;;16.30;43.59
76592;BME280;65481;47.600;19.682;2023-03-23T18:09:59;100025.06;;;16.18;44.17
76592;BME280;65481;47.600;19.682;2023-03-23T18:15:00;100021.66;;;15.97;44.97
76592;BME280;65481;47.600;19.682;2023-03-23T18:20:02;100025.09;;;15.82;45.77
76592;BME280;65481;47.600;19.682;2023-03-23T18:25:03;100024.56;;;15.74;46.28
76592;BME280;65481;47.600;19.682;2023-03-23T18:30:06;100038.41;;;15.66;46.83
76592;BME280;65481;47.600;19.682;2023-03-23T18:35:08;100045.88;;;15.59;47.17
76592;BME280;65481;47.600;19.682;2023-03-23T18:40:10;100036.53;;;15.41;47.76
76592;BME280;65481;47.600;19.682;2023-03-23T18:45:12;100032.28;;;15.40;48.10
76592;BME280;65481;47.600;19.682;2023-03-23T18:50:13;100028.81;;;15.44;48.34
76592;BME280;65481;47.600;19.682;2023-03-23T18:55:14;100033.63;;;15.53;48.23
76592;BME280;65481;47.600;19.682;2023-03-23T19:00:15;100028.03;;;15.49;48.36
76592;BME280;65481;47.600;19.682;2023-03-23T19:05:16;100043.19;;;15.49;48.55
76592;BME280;65481;47.600;19.682;2023-03-23T19:10:18;100049.81;;;15.41;48.59
76592;BME280;65481;47.600;19.682;2023-03-23T19:15:20;100055.66;;;15.27;48.83
76592;BME280;65481;47.600;19.682;2023-03-23T19:20:27;100046.88;;;15.17;49.14
76592;BME280;65481;47.600;19.682;2023-03-23T19:25:28;100041.22;;;14.97;49.44
76592;BME280;65481;47.600;19.682;2023-03-23T19:30:29;100046.19;;;14.73;49.96
76592;BME280;65481;47.600;19.682;2023-03-23T19:35:31;100046.63;;;14.54;50.49
76592;BME280;65481;47.600;19.682;2023-03-23T19:40:32;100054.03;;;14.47;50.59
76592;BME280;65481;47.600;19.682;2023-03-23T19:45:33;100051.84;;;14.39;50.92
76592;BME280;65481;47.600;19.682;2023-03-23T19:50:34;100058.94;;;14.28;51.08
76592;BME280;65481;47.600;19.682;2023-03-23T19:55:38;100063.97;;;14.24;51.20
76592;BME280;65481;47.600;19.682;2023-03-23T20:00:40;100067.13;;;14.21;51.12
76592;BME280;65481;47.600;19.682;2023-03-23T20:05:41;100056.47;;;14.11;51.58
76592;BME280;65481;47.600;19.682;2023-03-23T20:10:43;100065.16;;;14.01;52.01
76592;BME280;65481;47.600;19.682;2023-03-23T20:15:51;100061.41;;;13.97;52.38
76592;BME280;65481;47.600;19.682;2023-03-23T20:21:04;100078.94;;;13.98;52.36
76592;BME280;65481;47.600;19.682;2023-03-23T20:26:11;100076.00;;;13.95;52.39
76592;BME280;65481;47.600;19.682;2023-03-23T20:31:13;100078.53;;;13.84;52.66
76592;BME280;65481;47.600;19.682;2023-03-23T20:36:15;100072.91;;;13.75;52.69
76592;BME280;65481;47.600;19.682;2023-03-23T20:41:19;100064.44;;;13.46;53.32
76592;BME280;65481;47.600;19.682;2023-03-23T20:46:20;100062.84;;;13.23;53.81
76592;BME280;65481;47.600;19.682;2023-03-23T20:51:22;100054.97;;;13.06;54.26
76592;BME280;65481;47.600;19.682;2023-03-23T20:56:24;100056.53;;;13.01;54.59
76592;BME280;65481;47.600;19.682;2023-03-23T21:01:24;100048.38;;;12.81;55.21
76592;BME280;65481;47.600;19.682;2023-03-23T21:06:25;100057.06;;;12.76;55.18
76592;BME280;65481;47.600;19.682;2023-03-23T21:11:28;100045.03;;;12.68;55.51
76592;BME280;65481;47.600;19.682;2023-03-23T21:16:29;100041.97;;;12.54;56.06
76592;BME280;65481;47.600;19.682;2023-03-23T21:21:30;100027.59;;;12.50;56.37
76592;BME280;65481;47.600;19.682;2023-03-23T21:26:31;100030.81;;;12.52;56.36
76592;BME280;65481;47.600;19.682;2023-03-23T21:31:32;100043.59;;;12.61;56.00
76592;BME280;65481;47.600;19.682;2023-03-23T21:36:34;100042.03;;;12.60;56.16
76592;BME280;65481;47.600;19.682;2023-03-23T21:41:35;100035.34;;;12.57;56.32
76592;BME280;65481;47.600;19.682;2023-03-23T21:46:37;100049.97;;;12.60;56.67
76592;BME280;65481;47.600;19.682;2023-03-23T21:51:39;100048.38;;;12.59;56.79
76592;BME280;65481;47.600;19.682;2023-03-23T21:56:40;100048.03;;;12.55;56.82
76592;BME280;65481;47.600;19.682;2023-03-23T22:01:40;100051.56;;;12.21;58.42
76592;BME280;65481;47.600;19.682;2023-03-23T22:06:41;100058.59;;;11.81;59.81
76592;BME280;65481;47.600;19.682;2023-03-23T22:11:42;100069.03;;;11.42;60.89
76592;BME280;65481;47.600;19.682;2023-03-23T22:16:42;100071.41;;;11.27;61.25
76592;BME280;65481;47.600;19.682;2023-03-23T22:21:44;100065.94;;;11.16;61.11
76592;BME280;65481;47.600;19.682;2023-03-23T22:26:45;100064.53;;;11.14;61.39
76592;BME280;65481;47.600;19.682;2023-03-23T22:31:46;100056.63;;;11.14;61.61
76592;BME280;65481;47.600;19.682;2023-03-23T22:36:46;100058.00;;;11.16;61.10
76592;BME280;65481;47.600;19.682;2023-03-23T22:41:47;100056.19;;;11.05;60.72
76592;BME280;65481;47.600;19.682;2023-03-23T22:46:47;100060.09;;;10.73;61.73
76592;BME280;65481;47.600;19.682;2023-03-23T22:51:48;100062.97;;;10.60;62.70
76592;BME280;65481;47.600;19.682;2023-03-23T22:56:49;100060.31;;;10.60;63.17
76592;BME280;65481;47.600;19.682;2023-03-23T23:01:50;100061.03;;;10.55;63.35
76592;BME280;65481;47.600;19.682;2023-03-23T23:06:50;100068.25;;;10.36;63.77
76592;BME280;65481;47.600;19.682;2023-03-23T23:11:51;100086.09;;;9.98;65.02
76592;BME280;65481;47.600;19.682;2023-03-23T23:16:51;100089.09;;;9.60;66.38
76592;BME280;65481;47.600;19.682;2023-03-23T23:21:52;100093.09;;;9.20;67.32
76592;BME280;65481;47.600;19.682;2023-03-23T23:26:54;100090.88;;;9.17;67.24
76592;BME280;65481;47.600;19.682;2023-03-23T23:31:55;100090.53;;;8.94;67.92
76592;BME280;65481;47.600;19.682;2023-03-23T23:36:56;100089.13;;;8.73;68.66
76592;BME280;65481;47.600;19.682;2023-03-23T23:41:58;100086.16;;;8.70;69.04
76592;BME280;65481;47.600;19.682;2023-03-23T23:46:59;100079.13;;;8.63;69.14
76592;BME280;65481;47.600;19.682;2023-03-23T23:52:01;100081.16;;;8.61;69.33
76592;BME280;65481;47.600;19.682;2023-03-23T23:57:02;100086.56;;;8.48;69.92
